createdAt,value
2022-12-11T00:02:04.475Z,95605.34
2022-12-11T00:07:06.453Z,95592.19
2022-12-11T00:12:08.442Z,95593.25
2022-12-11T00:17:11.826Z,95581.06
2022-12-11T00:22:13.870Z,95571.31
2022-12-11T00:27:15.897Z,95574.69
2022-12-11T00:32:19.328Z,95577.00
2022-12-11T00:37:21.401Z,95568.72
2022-12-11T00:42:23.570Z,95579.88
2022-12-11T00:47:26.849Z,95571.47
2022-12-11T00:52:28.793Z,95580.66
2022-12-11T00:57:30.741Z,95578.06
2022-12-11T01:02:34.135Z,95587.28
2022-12-11T01:07:36.185Z,95584.16
2022-12-11T01:12:38.261Z,95573.19
2022-12-11T01:17:41.509Z,95563.50
2022-12-11T01:22:43.454Z,95554.16
2022-12-11T01:27:45.407Z,95557.22
2022-12-11T01:32:49.009Z,95564.91
2022-12-11T01:37:50.946Z,95558.06
2022-12-11T01:42:52.888Z,95552.66
2022-12-11T01:48:01.978Z,95558.72
2022-12-11T01:53:07.018Z,95558.63
2022-12-11T01:58:10.739Z,95552.88
2022-12-11T02:03:14.309Z,95551.25
2022-12-11T02:08:16.686Z,95548.75
2022-12-11T02:13:25.043Z,95552.56
2022-12-11T02:18:33.806Z,95548.00
2022-12-11T02:23:58.705Z,95550.78
2022-12-11T02:29:05.051Z,95549.50
2022-12-11T02:34:12.065Z,95537.56
2022-12-11T02:39:16.630Z,95535.16
2022-12-11T02:44:24.343Z,95543.94
2022-12-11T02:49:28.114Z,95541.38
2022-12-11T02:54:34.925Z,95534.72
2022-12-11T02:59:40.934Z,95540.47
2022-12-11T03:04:44.300Z,95540.94
2022-12-11T03:09:48.043Z,95541.81
2022-12-11T03:14:51.446Z,95542.34
2022-12-11T03:20:04.711Z,95534.13
2022-12-11T03:25:10.717Z,95524.03
2022-12-11T03:30:17.845Z,95519.09
2022-12-11T03:35:25.126Z,95516.41
2022-12-11T03:40:30.878Z,95522.00
2022-12-11T03:45:35.501Z,95522.34
2022-12-11T03:50:38.569Z,95518.78
2022-12-11T03:55:41.831Z,95510.97
2022-12-11T04:00:45.202Z,95512.28
2022-12-11T04:05:50.785Z,95511.19
2022-12-11T04:11:11.666Z,95511.09
2022-12-11T04:16:14.978Z,95505.78
2022-12-11T04:21:39.404Z,95505.16
2022-12-11T04:26:42.300Z,95489.19
2022-12-11T04:31:45.907Z,95492.53
2022-12-11T04:36:47.844Z,95492.09
2022-12-11T04:41:49.830Z,95487.44
2022-12-11T04:46:53.089Z,95498.94
2022-12-11T04:51:55.030Z,95496.00
2022-12-11T04:56:58.188Z,95484.13
2022-12-11T05:02:01.470Z,95484.69
2022-12-11T05:07:03.412Z,95481.88
2022-12-11T05:12:05.499Z,95470.94
2022-12-11T05:17:08.758Z,95474.53
2022-12-11T05:22:10.676Z,95473.53
2022-12-11T05:27:12.704Z,95478.84
2022-12-11T05:32:16.019Z,95487.53
2022-12-11T05:37:17.938Z,95486.88
2022-12-11T05:42:22.877Z,95479.19
2022-12-11T05:47:30.884Z,95480.91
2022-12-11T05:52:33.148Z,95479.41
2022-12-11T05:57:35.082Z,95479.84
2022-12-11T06:02:38.413Z,95489.19
2022-12-11T06:07:40.365Z,95494.84
2022-12-11T06:12:42.347Z,95490.72
2022-12-11T06:17:45.577Z,95504.91
2022-12-11T06:22:47.699Z,95509.25
2022-12-11T06:27:50.332Z,95505.44
2022-12-11T06:32:53.614Z,95511.31
2022-12-11T06:37:55.888Z,95509.25
2022-12-11T06:42:57.789Z,95516.63
2022-12-11T06:48:01.079Z,95511.41
2022-12-11T06:53:03.013Z,95514.25
2022-12-11T06:58:05.590Z,95525.63
2022-12-11T07:03:10.024Z,95518.03
2022-12-11T07:08:11.963Z,95521.25
2022-12-11T07:13:13.966Z,95521.38
2022-12-11T07:18:17.523Z,95534.38
2022-12-11T07:23:19.647Z,95531.91
2022-12-11T07:28:21.633Z,95556.09
2022-12-11T07:33:24.912Z,95549.59
2022-12-11T07:38:27.061Z,95558.94
2022-12-11T07:43:29.605Z,95550.69
2022-12-11T07:48:35.582Z,95553.84
2022-12-11T07:53:37.664Z,95550.91
2022-12-11T07:58:39.699Z,95553.06
2022-12-11T08:03:43.739Z,95552.88
2022-12-11T08:23:59.981Z,95568.03
2022-12-11T08:29:02.644Z,95572.16
2022-12-11T08:34:05.160Z,95580.09
2022-12-11T08:39:10.501Z,95578.00
2022-12-11T08:44:16.393Z,95587.72
2022-12-11T08:49:19.253Z,95590.97
2022-12-11T08:54:22.741Z,95596.25
2022-12-11T08:59:25.672Z,95581.41
2022-12-11T09:04:27.642Z,95570.63
2022-12-11T09:09:30.964Z,95576.47
2022-12-11T09:14:33.045Z,95578.50
2022-12-11T09:19:34.977Z,95589.91
2022-12-11T09:24:38.519Z,95592.53
2022-12-11T09:29:40.748Z,95593.63
2022-12-11T09:34:42.699Z,95587.25
2022-12-11T09:39:46.483Z,95586.56
2022-12-11T09:44:52.274Z,95570.50
2022-12-11T09:50:03.015Z,95590.06
2022-12-11T09:55:16.568Z,95588.91
2022-12-11T10:00:24.639Z,95584.19
2022-12-11T10:05:36.038Z,95566.78
2022-12-11T10:10:43.688Z,95582.19
2022-12-11T10:15:52.007Z,95580.16
2022-12-11T10:20:54.901Z,95575.19
2022-12-11T10:26:05.434Z,95578.31
2022-12-11T10:31:16.208Z,95588.28
2022-12-11T10:36:21.895Z,95589.22
2022-12-11T10:41:36.949Z,95583.72
2022-12-11T10:46:39.359Z,95566.75
2022-12-11T10:51:41.834Z,95549.94
2022-12-11T10:56:47.024Z,95554.03
2022-12-11T11:01:49.088Z,95557.53
2022-12-11T11:07:01.596Z,95537.03
2022-12-11T11:12:16.968Z,95539.28
2022-12-11T11:17:19.027Z,95541.50
2022-12-11T11:22:21.295Z,95543.59
2022-12-11T11:27:30.912Z,95542.25
2022-12-11T11:32:36.815Z,95543.47
2022-12-11T11:37:41.084Z,95540.31
2022-12-11T11:42:49.325Z,95538.31
2022-12-11T11:48:07.792Z,95538.88
2022-12-11T11:53:20.240Z,95553.09
2022-12-11T11:58:28.043Z,95527.09
2022-12-11T12:03:30.280Z,95526.00
2022-12-11T12:08:44.091Z,95519.66
2022-12-11T12:13:56.164Z,95525.75
2022-12-11T12:19:06.304Z,95536.84
2022-12-11T12:24:19.130Z,95539.81
2022-12-11T12:29:32.931Z,95541.31
2022-12-11T12:34:47.782Z,95550.19
2022-12-11T12:39:57.199Z,95557.50
2022-12-11T12:45:08.816Z,95543.00
2022-12-11T12:50:14.784Z,95551.41
2022-12-11T12:55:22.984Z,95545.88
2022-12-11T13:00:34.546Z,95545.72
2022-12-11T13:05:36.538Z,95555.09
2022-12-11T13:10:41.520Z,95547.06
2022-12-11T13:15:44.867Z,95546.72
2022-12-11T13:20:51.073Z,95558.66
2022-12-11T13:25:54.872Z,95566.53
2022-12-11T13:31:25.456Z,95572.47
2022-12-11T13:36:31.402Z,95569.22
2022-12-11T13:41:36.763Z,95574.13
2022-12-11T13:46:40.200Z,95585.97
2022-12-11T13:51:52.071Z,95592.19
2022-12-11T13:57:03.372Z,95578.25
2022-12-11T14:02:15.179Z,95597.34
2022-12-11T14:07:25.057Z,95595.91
2022-12-11T14:12:29.268Z,95602.50
2022-12-11T14:17:35.219Z,95609.91
2022-12-11T14:22:37.299Z,95607.16
2022-12-11T14:27:47.999Z,95612.00
2022-12-11T14:32:53.431Z,95611.81
2022-12-11T14:37:57.441Z,95598.25
2022-12-11T14:43:03.875Z,95598.06
2022-12-11T14:48:12.036Z,95592.69
2022-12-11T14:53:17.368Z,95597.97
2022-12-11T14:58:22.355Z,95607.69
2022-12-11T15:03:32.061Z,95614.06
2022-12-11T15:08:36.893Z,95620.53
2022-12-11T15:13:52.295Z,95617.50
2022-12-11T15:18:56.606Z,95614.63
2022-12-11T15:24:00.492Z,95612.66
2022-12-11T15:29:04.108Z,95617.97
2022-12-11T15:34:23.639Z,95618.44
2022-12-11T15:39:25.819Z,95626.00
2022-12-11T15:44:27.821Z,95627.00
2022-12-11T15:49:31.091Z,95630.59
2022-12-11T15:54:33.057Z,95638.72
2022-12-11T15:59:35.598Z,95641.34
2022-12-11T16:04:38.897Z,95650.41
2022-12-11T16:09:40.858Z,95644.03
2022-12-11T16:14:43.992Z,95638.34
2022-12-11T16:19:47.282Z,95632.41
2022-12-11T16:24:53.419Z,95635.16
2022-12-11T16:29:55.615Z,95639.53
2022-12-11T16:35:02.108Z,95637.78
2022-12-11T16:40:06.579Z,95650.53
2022-12-11T16:45:12.497Z,95654.25
2022-12-11T16:50:16.732Z,95661.50
2022-12-11T16:55:22.227Z,95659.19
2022-12-11T17:00:24.317Z,95649.28
2022-12-11T17:05:27.664Z,95669.22
2022-12-11T17:10:29.665Z,95662.81
2022-12-11T17:15:31.674Z,95664.56
2022-12-11T17:20:35.113Z,95673.69
2022-12-11T17:25:40.015Z,95674.03
2022-12-11T17:30:43.374Z,95666.50
2022-12-11T17:35:47.043Z,95670.28
2022-12-11T17:40:49.124Z,95666.97
2022-12-11T17:45:55.343Z,95661.66
2022-12-11T17:51:02.968Z,95680.31
2022-12-11T17:56:07.487Z,95681.78
2022-12-11T18:01:11.549Z,95666.03
2022-12-11T18:06:16.170Z,95658.09
2022-12-11T18:11:19.184Z,95664.03
2022-12-11T18:16:24.158Z,95663.78
2022-12-11T18:21:32.462Z,95654.78
2022-12-11T18:26:34.739Z,95669.69
2022-12-11T18:31:42.205Z,95666.03
2022-12-11T18:36:46.319Z,95662.63
2022-12-11T18:42:03.418Z,95671.22
2022-12-11T18:47:10.614Z,95674.38
2022-12-11T18:52:14.610Z,95677.50
2022-12-11T18:57:16.696Z,95676.63
2022-12-11T19:02:19.084Z,95678.66
2022-12-11T19:07:22.504Z,95683.66
2022-12-11T19:12:24.701Z,95683.97
2022-12-11T19:17:26.831Z,95669.16
2022-12-11T19:22:30.234Z,95675.94
2022-12-11T19:27:32.255Z,95676.63
2022-12-11T19:32:36.347Z,95675.16
2022-12-11T19:37:39.820Z,95674.84
2022-12-11T19:42:42.380Z,95679.34
2022-12-11T19:47:44.476Z,95688.16
2022-12-11T19:52:47.824Z,95691.69
2022-12-11T19:57:50.044Z,95687.66
2022-12-11T20:02:52.196Z,95685.41
2022-12-11T20:07:57.505Z,95693.09
2022-12-11T20:13:07.709Z,95693.38
2022-12-11T20:18:12.781Z,95694.72
2022-12-11T20:23:20.448Z,95698.31
2022-12-11T20:28:22.981Z,95689.97
2022-12-11T20:33:24.922Z,95694.44
2022-12-11T20:38:34.131Z,95688.66
2022-12-11T20:43:37.224Z,95698.06
2022-12-11T20:48:40.813Z,95686.28
2022-12-11T20:53:44.431Z,95681.69
2022-12-11T20:58:46.530Z,95688.72
2022-12-11T21:03:49.102Z,95680.19
2022-12-11T21:08:52.993Z,95683.38
2022-12-11T21:13:55.126Z,95686.38
2022-12-11T21:18:58.105Z,95679.41
2022-12-11T21:24:01.684Z,95678.59
2022-12-11T21:29:03.726Z,95679.41
2022-12-11T21:34:06.580Z,95687.13
2022-12-11T21:39:11.853Z,95685.97
2022-12-11T21:45:25.815Z,95682.13
2022-12-11T21:49:36.826Z,95686.81
2022-12-11T21:54:40.595Z,95683.88
2022-12-11T21:59:42.513Z,95688.56
2022-12-11T22:04:47.368Z,95683.34
2022-12-11T22:09:50.659Z,95679.56
2022-12-11T22:14:52.651Z,95679.53
2022-12-11T22:19:54.641Z,95680.25
2022-12-11T22:24:57.984Z,95680.19
2022-12-11T22:29:59.983Z,95684.00
2022-12-11T22:35:01.948Z,95672.03
2022-12-11T22:40:06.324Z,95675.13
2022-12-11T22:45:09.928Z,95677.88
2022-12-11T22:50:13.347Z,95661.75
2022-12-11T22:55:16.760Z,95668.72
2022-12-11T23:00:18.763Z,95660.97
2022-12-11T23:05:20.790Z,95671.00
2022-12-11T23:10:24.583Z,95664.13
2022-12-11T23:15:26.625Z,95662.78
2022-12-11T23:20:28.877Z,95666.97
2022-12-11T23:25:32.307Z,95657.56
2022-12-11T23:30:34.413Z,95661.09
2022-12-11T23:35:36.513Z,95667.16
2022-12-11T23:40:39.772Z,95661.94
2022-12-11T23:45:43.426Z,95657.06
2022-12-11T23:50:45.726Z,95654.75
2022-12-11T23:55:48.984Z,95652.19
